createdAt,value
2023-08-20T00:00:58.963Z,51.051632
2023-08-20T00:01:58.966Z,51.051670
2023-08-20T00:02:59.026Z,51.051682
2023-08-20T00:03:58.997Z,51.051651
2023-08-20T00:04:58.947Z,51.051632
2023-08-20T00:05:58.984Z,51.051601
2023-08-20T00:06:58.963Z,51.051617
2023-08-20T00:07:58.911Z,51.051651
2023-08-20T00:08:58.904Z,51.051712
2023-08-20T00:09:58.885Z,51.051643
2023-08-20T00:10:58.910Z,51.051620
2023-08-20T00:11:58.875Z,51.051636
2023-08-20T00:12:58.930Z,51.051609
2023-08-20T00:13:58.864Z,51.051598
2023-08-20T00:14:58.845Z,51.051640
2023-08-20T00:15:58.891Z,51.051582
2023-08-20T00:16:58.837Z,51.051563
2023-08-20T00:17:58.906Z,51.051609
2023-08-20T00:18:58.827Z,51.051643
2023-08-20T00:19:58.828Z,51.051609
2023-08-20T00:20:58.829Z,51.051651
2023-08-20T00:21:58.796Z,51.051674
2023-08-20T00:22:58.793Z,51.051594
2023-08-20T00:23:58.792Z,51.051632
2023-08-20T00:24:58.816Z,51.051601
2023-08-20T00:25:58.850Z,51.051598
2023-08-20T00:26:58.770Z,51.051556
2023-08-20T00:27:58.783Z,51.051559
2023-08-20T00:28:58.751Z,51.051559
2023-08-20T00:29:58.763Z,51.051605
2023-08-20T00:30:58.746Z,51.051567
2023-08-20T00:31:58.788Z,51.051647
2023-08-20T00:32:58.773Z,51.051609
2023-08-20T00:34:06.586Z,51.051586
2023-08-20T00:35:00.720Z,51.051651
2023-08-20T00:35:58.705Z,51.051613
2023-08-20T00:36:58.678Z,51.051605
2023-08-20T00:37:58.685Z,51.051613
2023-08-20T00:38:58.981Z,51.051594
2023-08-20T00:39:58.658Z,51.051609
2023-08-20T00:40:58.674Z,51.051666
2023-08-20T00:41:58.645Z,51.051598
2023-08-20T00:42:58.649Z,51.051662
2023-08-20T00:43:58.655Z,51.051708
2023-08-20T00:44:58.681Z,51.051704
2023-08-20T00:45:58.680Z,51.051670
2023-08-20T00:46:58.611Z,51.051624
2023-08-20T00:47:58.683Z,51.051628
2023-08-20T00:48:58.644Z,51.051704
2023-08-20T00:49:58.586Z,51.051659
2023-08-20T00:50:58.607Z,51.051682
2023-08-20T00:51:58.577Z,51.051636
2023-08-20T00:52:58.644Z,51.051662
2023-08-20T00:53:58.559Z,51.051659
2023-08-20T00:54:58.558Z,51.051655
2023-08-20T00:55:58.541Z,51.051716
2023-08-20T00:56:58.567Z,51.051689
2023-08-20T00:57:58.602Z,51.051739
2023-08-20T00:58:58.514Z,51.051670
2023-08-20T00:59:58.517Z,51.051689
2023-08-20T01:00:58.544Z,51.051678
2023-08-20T01:01:58.526Z,51.051674
2023-08-20T01:02:58.534Z,51.051685
2023-08-20T01:03:58.487Z,51.051678
2023-08-20T01:04:58.543Z,51.051693
2023-08-20T01:05:58.476Z,51.051697
2023-08-20T01:06:58.485Z,51.051689
2023-08-20T01:07:58.466Z,51.051636
2023-08-20T01:33:45.045Z,51.051857
2023-08-20T01:34:45.082Z,51.051735
2023-08-20T01:35:45.049Z,51.051685
2023-08-20T01:36:45.015Z,51.051727
2023-08-20T01:37:45.017Z,51.051693
2023-08-20T01:38:45.019Z,51.051716
2023-08-20T01:39:45.023Z,51.051815
2023-08-20T01:40:44.977Z,51.051880
2023-08-20T01:41:44.994Z,51.051895
2023-08-20T01:42:44.974Z,51.051815
2023-08-20T01:43:44.965Z,51.051788
2023-08-20T01:44:44.989Z,51.051750
2023-08-20T01:45:44.968Z,51.051834
2023-08-20T01:46:44.937Z,51.051781
2023-08-20T01:47:44.959Z,51.051983
2023-08-20T01:48:44.938Z,51.051926
2023-08-20T01:49:44.954Z,51.051926
2023-08-20T01:50:44.921Z,51.051697
2023-08-20T01:51:44.909Z,51.051647
2023-08-20T01:52:44.902Z,51.051640
2023-08-20T01:53:44.916Z,51.051624
2023-08-20T01:54:44.878Z,51.051613
2023-08-20T01:55:44.883Z,51.051727
2023-08-20T01:56:44.879Z,51.051674
2023-08-20T01:57:44.858Z,51.051632
2023-08-20T01:58:44.911Z,51.051617
2023-08-20T01:59:44.853Z,51.051662
2023-08-20T02:00:45.913Z,51.051640
2023-08-20T02:01:44.877Z,51.051685
2023-08-20T02:02:44.908Z,51.051636
2023-08-20T02:03:44.850Z,51.051647
2023-08-20T02:04:44.827Z,51.051743
2023-08-20T02:05:44.828Z,51.051712
2023-08-20T02:06:44.793Z,51.051624
2023-08-20T02:07:44.803Z,51.051643
2023-08-20T02:08:44.774Z,51.051731
2023-08-20T02:09:44.777Z,51.051682
2023-08-20T02:10:44.767Z,51.051765
2023-08-20T02:11:44.797Z,51.051689
2023-08-20T02:12:44.775Z,51.051689
2023-08-20T02:13:44.728Z,51.051704
2023-08-20T02:14:44.779Z,51.051613
2023-08-20T02:15:44.723Z,51.051651
2023-08-20T02:16:44.799Z,51.051708
2023-08-20T02:17:44.764Z,51.051674
2023-08-20T02:18:44.698Z,51.051666
2023-08-20T02:19:44.686Z,51.051693
2023-08-20T02:20:44.695Z,51.051762
2023-08-20T02:21:44.719Z,51.051819
2023-08-20T02:22:44.677Z,51.051815
2023-08-20T02:23:44.682Z,51.051643
2023-08-20T02:24:44.664Z,51.051628
2023-08-20T02:25:44.655Z,51.051651
2023-08-20T02:26:44.668Z,51.051647
2023-08-20T02:27:44.635Z,51.051682
2023-08-20T02:28:44.634Z,51.051655
2023-08-20T02:29:44.618Z,51.051670
2023-08-20T02:30:44.671Z,51.051640
2023-08-20T02:31:44.618Z,51.051670
2023-08-20T02:32:44.697Z,51.051701
2023-08-20T02:33:44.597Z,51.051720
2023-08-20T02:34:44.587Z,51.051701
2023-08-20T02:35:44.799Z,51.051823
2023-08-20T02:36:44.565Z,51.051750
2023-08-20T02:37:45.595Z,51.051708
2023-08-20T02:38:44.555Z,51.051731
2023-08-20T02:39:44.578Z,51.051689
2023-08-20T02:40:44.567Z,51.051682
2023-08-20T02:41:44.572Z,51.051731
2023-08-20T02:42:44.545Z,51.051701
2023-08-20T02:43:44.532Z,51.051720
2023-08-20T02:44:44.945Z,51.051685
2023-08-20T02:45:44.698Z,51.051693
2023-08-20T02:46:44.502Z,51.051708
2023-08-20T02:47:44.532Z,51.051590
2023-08-20T02:48:44.488Z,51.051624
2023-08-20T02:49:44.493Z,51.051697
2023-08-20T02:50:44.473Z,51.051704
2023-08-20T02:51:44.461Z,51.051708
2023-08-20T02:52:44.478Z,51.051723
2023-08-20T02:53:44.466Z,51.051685
2023-08-20T02:54:44.482Z,51.051704
2023-08-20T02:55:44.456Z,51.051735
2023-08-20T02:56:44.425Z,51.051735
2023-08-20T02:57:44.468Z,51.051704
2023-08-20T02:58:44.471Z,51.051750
2023-08-20T02:59:44.445Z,51.051701
2023-08-20T03:00:44.408Z,51.051708
2023-08-20T03:01:44.445Z,51.051678
2023-08-20T03:02:44.443Z,51.051689
2023-08-20T03:03:44.415Z,51.051800
2023-08-20T03:04:44.374Z,51.051716
2023-08-20T03:05:44.376Z,51.051670
2023-08-20T03:06:44.389Z,51.051685
2023-08-20T03:07:44.362Z,51.051674
2023-08-20T03:08:44.378Z,51.051685
2023-08-20T03:09:44.351Z,51.051727
2023-08-20T03:10:44.333Z,51.051723
2023-08-20T03:11:44.322Z,51.051643
2023-08-20T03:12:44.342Z,51.051674
2023-08-20T03:13:44.320Z,51.051659
2023-08-20T03:14:44.288Z,51.051685
2023-08-20T03:15:44.334Z,51.051746
2023-08-20T03:16:44.279Z,51.051804
2023-08-20T03:17:44.432Z,51.051716
2023-08-20T03:18:44.271Z,51.051651
2023-08-20T03:19:44.363Z,51.051685
2023-08-20T03:20:44.271Z,51.051678
2023-08-20T03:21:44.243Z,51.051689
2023-08-20T03:22:44.331Z,51.051712
2023-08-20T03:23:44.230Z,51.051670
2023-08-20T03:24:44.242Z,51.051670
2023-08-20T03:25:44.243Z,51.051678
2023-08-20T03:26:44.212Z,51.051685
2023-08-20T03:27:44.234Z,51.051685
2023-08-20T03:28:44.195Z,51.051697
2023-08-20T03:29:44.188Z,51.051697
2023-08-20T03:30:44.174Z,51.051643
2023-08-20T03:31:44.190Z,51.051636
2023-08-20T03:32:44.172Z,51.051708
2023-08-20T03:33:44.180Z,51.051647
2023-08-20T03:34:44.137Z,51.051708
2023-08-20T03:35:44.183Z,51.051697
2023-08-20T03:36:45.070Z,51.051697
2023-08-20T03:37:44.117Z,51.051689
2023-08-20T03:38:44.169Z,51.051735
2023-08-20T03:39:44.103Z,51.051689
2023-08-20T03:40:44.127Z,51.051682
2023-08-20T03:41:44.082Z,51.051651
2023-08-20T03:42:44.090Z,51.051662
2023-08-20T03:43:44.077Z,51.051662
2023-08-20T03:44:44.079Z,51.051678
2023-08-20T03:45:44.107Z,51.051678
2023-08-20T03:46:44.195Z,51.051670
2023-08-20T03:47:44.081Z,51.051701
2023-08-20T03:48:44.129Z,51.051716
2023-08-20T03:49:44.058Z,51.051693
2023-08-20T03:50:44.047Z,51.051685
2023-08-20T03:51:44.023Z,51.051640
2023-08-20T03:52:44.001Z,51.051678
2023-08-20T03:53:44.018Z,51.051693
2023-08-20T03:54:44.027Z,51.051682
2023-08-20T03:55:44.009Z,51.051682
2023-08-20T03:56:43.990Z,51.051682
2023-08-20T03:57:43.968Z,51.051704
2023-08-20T03:58:43.957Z,51.051640
2023-08-20T03:59:43.984Z,51.051651
2023-08-20T04:00:43.942Z,51.051590
2023-08-20T04:01:43.944Z,51.051647
2023-08-20T04:02:43.936Z,51.051659
2023-08-20T04:03:43.968Z,51.051666
2023-08-20T04:04:43.925Z,51.051682
2023-08-20T04:05:43.905Z,51.051651
2023-08-20T04:06:44.043Z,51.051651
2023-08-20T04:07:44.048Z,51.051670
2023-08-20T04:08:44.258Z,51.051701
2023-08-20T04:09:43.876Z,51.051716
2023-08-20T04:10:43.902Z,51.051689
2023-08-20T04:11:43.863Z,51.051659
2023-08-20T04:12:43.884Z,51.051655
2023-08-20T04:13:43.875Z,51.051659
2023-08-20T04:14:43.846Z,51.051666
2023-08-20T04:15:43.839Z,51.051662
2023-08-20T04:16:43.824Z,51.051689
2023-08-20T04:17:43.869Z,51.051678
2023-08-20T04:18:43.834Z,51.051620
2023-08-20T04:19:43.805Z,51.051682
2023-08-20T04:20:43.800Z,51.051666
2023-08-20T04:21:43.811Z,51.051731
2023-08-20T04:22:43.806Z,51.051655
2023-08-20T04:23:43.793Z,51.051682
2023-08-20T04:24:43.863Z,51.051754
2023-08-20T04:25:43.781Z,51.051651
2023-08-20T04:26:43.746Z,51.051682
2023-08-20T04:27:43.774Z,51.051701
2023-08-20T04:28:43.735Z,51.051659
2023-08-20T04:29:43.725Z,51.051628
2023-08-20T04:30:43.744Z,51.051666
2023-08-20T04:31:43.733Z,51.051693
2023-08-20T04:32:43.762Z,51.051712
2023-08-20T04:33:43.732Z,51.051659
2023-08-20T04:34:43.705Z,51.051636
2023-08-20T04:35:43.704Z,51.051632
2023-08-20T04:36:43.744Z,51.051640
2023-08-20T04:37:43.705Z,51.051624
2023-08-20T04:38:43.782Z,51.051628
2023-08-20T04:39:43.668Z,51.051613
2023-08-20T04:40:43.660Z,51.051617
2023-08-20T04:41:43.672Z,51.051655
2023-08-20T04:42:43.648Z,51.051647
2023-08-20T04:43:43.634Z,51.051655
2023-08-20T04:44:43.638Z,51.051647
2023-08-20T04:45:43.651Z,51.051666
2023-08-20T04:46:43.682Z,51.051662
2023-08-20T04:47:43.636Z,51.051662
2023-08-20T04:48:43.616Z,51.051643
2023-08-20T04:49:43.641Z,51.051674
2023-08-20T04:50:43.604Z,51.051682
2023-08-20T04:51:43.576Z,51.051697
2023-08-20T04:52:43.585Z,51.051697
2023-08-20T04:53:43.582Z,51.051689
2023-08-20T04:54:43.552Z,51.051704
2023-08-20T04:55:43.605Z,51.051720
2023-08-20T04:56:43.564Z,51.051682
2023-08-20T04:57:43.575Z,51.051682
2023-08-20T04:58:43.582Z,51.051689
2023-08-20T04:59:43.623Z,51.051689
2023-08-20T05:00:43.673Z,51.051704
2023-08-20T05:01:43.578Z,51.051704
2023-08-20T05:02:43.713Z,51.051693
2023-08-20T05:03:43.554Z,51.051670
2023-08-20T05:04:43.500Z,51.051647
2023-08-20T05:05:43.474Z,51.051655
2023-08-20T05:06:43.479Z,51.051640
2023-08-20T05:07:43.448Z,51.051765
2023-08-20T05:08:43.439Z,51.051796
2023-08-20T05:09:43.460Z,51.051792
2023-08-20T05:10:43.424Z,51.051743
2023-08-20T05:11:43.481Z,51.051685
2023-08-20T05:12:43.432Z,51.051628
2023-08-20T05:13:43.563Z,51.051678
2023-08-20T05:14:43.732Z,51.051682
2023-08-20T05:15:43.398Z,51.051704
2023-08-20T05:16:43.428Z,51.051640
2023-08-20T05:17:43.397Z,51.051643
2023-08-20T05:18:44.398Z,51.051659
2023-08-20T05:19:43.360Z,51.051666
2023-08-20T05:20:43.342Z,51.051723
2023-08-20T05:21:43.367Z,51.051697
2023-08-20T05:22:43.335Z,51.051670
2023-08-20T05:23:43.359Z,51.051712
2023-08-20T05:24:44.273Z,51.051643
2023-08-20T05:25:44.159Z,51.051632
2023-08-20T05:26:44.046Z,51.051651
2023-08-20T05:27:43.666Z,51.051685
2023-08-20T05:28:45.773Z,51.051689
2023-08-20T05:29:44.101Z,51.051689
2023-08-20T05:30:43.465Z,51.051723
2023-08-20T05:31:43.850Z,51.051693
2023-08-20T05:32:44.231Z,51.051701
2023-08-20T05:33:43.500Z,51.051712
2023-08-20T05:34:43.749Z,51.051731
2023-08-20T05:35:43.311Z,51.051693
2023-08-20T05:36:43.484Z,51.051685
2023-08-20T05:37:45.094Z,51.051693
2023-08-20T05:38:44.661Z,51.051708
2023-08-20T05:39:43.489Z,51.051693
2023-08-20T05:40:44.590Z,51.051685
2023-08-20T05:41:43.314Z,51.051674
2023-08-20T05:42:43.992Z,51.051670
2023-08-20T05:43:43.205Z,51.051620
2023-08-20T05:44:43.323Z,51.051605
2023-08-20T05:45:43.951Z,51.051601
2023-08-20T05:46:43.479Z,51.051590
2023-08-20T05:47:43.223Z,51.051640
2023-08-20T05:48:43.386Z,51.051651
2023-08-20T05:49:44.080Z,51.051643
2023-08-20T05:50:43.177Z,51.051640
2023-08-20T05:51:43.949Z,51.051628
2023-08-20T05:52:43.203Z,51.051655
2023-08-20T05:53:43.111Z,51.051632
2023-08-20T05:54:43.116Z,51.051601
2023-08-20T05:55:43.241Z,51.051632
2023-08-20T05:56:43.351Z,51.051632
2023-08-20T05:57:45.881Z,51.051697
2023-08-20T05:58:43.081Z,51.051655
2023-08-20T05:59:43.076Z,51.051655
2023-08-20T06:00:43.102Z,51.051666
2023-08-20T06:01:43.129Z,51.051632
2023-08-20T06:02:43.333Z,51.051666
2023-08-20T06:03:43.522Z,51.051628
2023-08-20T06:04:43.052Z,51.051655
2023-08-20T06:05:43.140Z,51.051651
2023-08-20T06:06:43.272Z,51.051674
2023-08-20T06:07:43.017Z,51.051666
2023-08-20T06:08:52.125Z,51.051636
2023-08-20T06:09:45.044Z,51.051662
2023-08-20T06:10:43.012Z,51.051682
2023-08-20T06:11:43.599Z,51.051682
2023-08-20T06:12:43.103Z,51.051682
2023-08-20T06:13:43.033Z,51.051670
2023-08-20T06:14:45.079Z,51.051651
2023-08-20T06:15:42.962Z,51.051685
2023-08-20T06:16:43.030Z,51.051662
2023-08-20T06:17:43.011Z,51.051704
2023-08-20T06:18:42.932Z,51.051632
2023-08-20T06:19:42.954Z,51.051598
2023-08-20T06:20:42.929Z,51.051617
2023-08-20T06:21:43.000Z,51.051636
2023-08-20T06:22:43.536Z,51.051628
2023-08-20T06:23:44.716Z,51.051674
2023-08-20T06:24:43.951Z,51.051662
2023-08-20T06:25:43.116Z,51.051666
2023-08-20T06:26:42.923Z,51.051659
2023-08-20T06:27:43.187Z,51.051693
2023-08-20T06:28:44.335Z,51.051651
2023-08-20T06:29:43.766Z,51.051659
2023-08-20T06:30:42.840Z,51.051647
2023-08-20T06:31:44.056Z,51.051655
2023-08-20T06:32:43.159Z,51.051651
2023-08-20T06:33:42.988Z,51.051674
2023-08-20T06:34:42.857Z,51.051674
2023-08-20T06:35:42.804Z,51.051670
2023-08-20T06:36:42.829Z,51.051693
2023-08-20T06:37:42.823Z,51.051693
2023-08-20T06:38:42.810Z,51.051682
2023-08-20T06:39:42.773Z,51.051693
2023-08-20T06:40:43.015Z,51.051628
2023-08-20T06:41:42.879Z,51.051643
2023-08-20T06:42:42.984Z,51.051643
2023-08-20T06:43:42.744Z,51.051628
2023-08-20T06:44:42.767Z,51.051659
2023-08-20T06:45:42.755Z,51.051659
2023-08-20T06:46:42.726Z,51.051682
2023-08-20T06:47:42.796Z,51.051655
2023-08-20T06:48:42.712Z,51.051636
2023-08-20T06:49:42.728Z,51.051624
2023-08-20T06:50:42.732Z,51.051651
2023-08-20T06:51:42.712Z,51.051666
2023-08-20T06:52:42.818Z,51.051651
2023-08-20T06:53:42.695Z,51.051598
2023-08-20T06:54:42.671Z,51.051620
2023-08-20T06:55:42.668Z,51.051643
2023-08-20T06:56:42.707Z,51.051640
2023-08-20T06:57:42.660Z,51.051674
2023-08-20T06:58:42.649Z,51.051674
2023-08-20T06:59:42.636Z,51.051647
2023-08-20T07:00:42.641Z,51.051624
2023-08-20T07:01:42.681Z,51.051678
2023-08-20T07:02:42.649Z,51.051647
2023-08-20T07:03:42.623Z,51.051640
2023-08-20T07:04:43.757Z,51.051689
2023-08-20T07:05:42.621Z,51.051670
2023-08-20T07:06:42.793Z,51.051655
2023-08-20T07:07:42.588Z,51.051682
2023-08-20T07:08:42.602Z,51.051632
2023-08-20T07:09:42.571Z,51.051697
2023-08-20T07:10:42.618Z,51.051674
2023-08-20T07:11:42.560Z,51.051655
2023-08-20T07:12:42.550Z,51.051682
2023-08-20T07:13:43.464Z,51.051598
2023-08-20T07:14:42.669Z,51.051647
2023-08-20T07:15:42.576Z,51.051609
2023-08-20T07:16:42.530Z,51.051682
2023-08-20T07:17:44.352Z,51.051651
2023-08-20T07:18:42.491Z,51.051693
2023-08-20T07:19:42.533Z,51.051685
2023-08-20T07:20:42.519Z,51.051643
2023-08-20T07:21:42.490Z,51.051617
2023-08-20T07:22:42.475Z,51.051624
2023-08-20T07:23:42.477Z,51.051701
2023-08-20T07:24:42.564Z,51.051685
2023-08-20T07:25:42.458Z,51.051701
2023-08-20T07:26:42.878Z,51.051682
2023-08-20T07:27:42.438Z,51.051666
2023-08-20T07:28:42.443Z,51.051670
2023-08-20T07:29:42.487Z,51.051666
2023-08-20T07:30:42.971Z,51.051689
2023-08-20T07:31:42.444Z,51.051643
2023-08-20T07:32:42.476Z,51.051666
2023-08-20T07:33:42.441Z,51.051682
2023-08-20T07:34:42.392Z,51.051670
2023-08-20T07:35:42.411Z,51.051636
2023-08-20T07:36:42.387Z,51.051605
2023-08-20T07:37:43.412Z,51.051659
2023-08-20T07:38:42.468Z,51.051674
2023-08-20T07:39:42.360Z,51.051704
2023-08-20T07:40:42.359Z,51.051689
2023-08-20T07:41:42.365Z,51.051662
2023-08-20T07:42:42.373Z,51.051640
2023-08-20T07:43:42.348Z,51.051624
2023-08-20T07:44:42.342Z,51.051651
2023-08-20T07:45:42.388Z,51.051689
2023-08-20T07:46:42.343Z,51.051697
2023-08-20T07:47:42.394Z,51.051674
2023-08-20T07:48:42.321Z,51.051754
2023-08-20T07:49:42.288Z,51.051716
2023-08-20T07:50:42.295Z,51.051731
2023-08-20T07:51:42.285Z,51.051704
2023-08-20T07:52:42.288Z,51.051651
2023-08-20T07:53:42.273Z,51.051666
2023-08-20T07:54:42.254Z,51.051636
2023-08-20T07:55:42.247Z,51.051632
2023-08-20T07:56:42.250Z,51.051731
2023-08-20T07:57:42.260Z,51.051712
2023-08-20T07:58:42.240Z,51.051697
2023-08-20T07:59:42.240Z,51.051670
2023-08-20T08:00:42.990Z,51.051666
2023-08-20T08:01:42.238Z,51.051678
2023-08-20T08:02:42.770Z,51.051693
2023-08-20T08:03:42.321Z,51.051640
2023-08-20T08:04:44.156Z,51.051659
2023-08-20T08:05:42.182Z,51.051704
2023-08-20T08:06:42.209Z,51.051720
2023-08-20T08:07:42.166Z,51.051682
2023-08-20T08:08:42.197Z,51.051678
2023-08-20T08:09:42.147Z,51.051704
2023-08-20T08:10:42.172Z,51.051666
2023-08-20T08:11:42.190Z,51.051670
2023-08-20T08:12:42.114Z,51.051586
2023-08-20T08:13:42.192Z,51.051506
2023-08-20T08:14:42.164Z,51.051491
2023-08-20T08:15:42.126Z,51.051514
2023-08-20T08:16:43.535Z,51.051495
2023-08-20T08:17:42.100Z,51.051510
2023-08-20T08:18:42.103Z,51.051586
2023-08-20T08:19:42.073Z,51.051590
2023-08-20T08:20:42.073Z,51.051685
2023-08-20T08:21:42.068Z,51.051571
2023-08-20T08:22:42.053Z,51.051537
2023-08-20T08:23:42.027Z,51.051670
2023-08-20T08:24:42.059Z,51.051674
2023-08-20T08:25:46.005Z,51.051693
2023-08-20T08:26:43.046Z,51.051670
2023-08-20T08:27:54.341Z,51.051659
2023-08-20T08:28:44.034Z,51.051643
2023-08-20T08:29:42.022Z,51.051662
2023-08-20T08:30:42.030Z,51.051670
2023-08-20T08:31:41.982Z,51.051662
2023-08-20T08:32:42.004Z,51.051685
2023-08-20T08:33:42.011Z,51.051666
2023-08-20T08:34:41.988Z,51.051670
2023-08-20T08:35:41.939Z,51.051659
2023-08-20T08:36:41.951Z,51.051655
2023-08-20T08:37:41.961Z,51.051670
2023-08-20T08:38:41.955Z,51.051659
2023-08-20T08:39:41.919Z,51.051647
2023-08-20T08:40:41.972Z,51.051693
2023-08-20T08:41:41.907Z,51.051674
2023-08-20T08:42:41.908Z,51.051666
2023-08-20T08:43:41.921Z,51.051670
2023-08-20T08:44:41.881Z,51.051659
2023-08-20T08:45:41.862Z,51.051651
2023-08-20T08:46:42.906Z,51.051655
2023-08-20T08:47:41.914Z,51.051643
2023-08-20T08:48:41.873Z,51.051659
2023-08-20T08:49:41.852Z,51.051662
2023-08-20T08:50:41.861Z,51.051655
2023-08-20T08:51:41.841Z,51.051655
2023-08-20T08:52:41.855Z,51.051666
2023-08-20T08:53:41.843Z,51.051693
2023-08-20T08:54:41.810Z,51.051670
2023-08-20T08:55:43.692Z,51.051670
2023-08-20T08:56:42.835Z,51.051674
2023-08-20T08:57:41.830Z,51.051712
2023-08-20T08:58:41.831Z,51.051662
2023-08-20T08:59:41.829Z,51.051655
2023-08-20T09:00:41.832Z,51.051643
2023-08-20T09:01:41.813Z,51.051647
2023-08-20T09:02:42.025Z,51.051617
2023-08-20T09:03:41.765Z,51.051544
2023-08-20T09:04:41.771Z,51.051636
2023-08-20T09:05:41.749Z,51.051662
2023-08-20T09:06:41.773Z,51.051647
2023-08-20T09:07:41.731Z,51.051647
2023-08-20T09:08:41.709Z,51.051628
2023-08-20T09:09:41.706Z,51.051632
2023-08-20T09:10:41.713Z,51.051651
2023-08-20T09:11:41.724Z,51.051643
2023-08-20T09:12:41.716Z,51.051662
2023-08-20T09:13:41.697Z,51.051640
2023-08-20T09:14:41.683Z,51.051727
2023-08-20T09:15:42.111Z,51.051601
2023-08-20T09:16:41.753Z,51.051689
2023-08-20T09:17:41.741Z,51.051575
2023-08-20T09:18:41.672Z,51.051643
2023-08-20T09:19:41.646Z,51.051689
2023-08-20T09:20:41.662Z,51.051628
2023-08-20T09:21:41.638Z,51.051609
2023-08-20T09:22:41.625Z,51.051662
2023-08-20T09:23:41.617Z,51.051701
2023-08-20T09:24:41.615Z,51.051620
2023-08-20T09:25:41.649Z,51.051613
2023-08-20T09:26:41.592Z,51.051620
2023-08-20T09:27:41.597Z,51.051624
2023-08-20T09:28:41.577Z,51.051601
2023-08-20T09:29:41.617Z,51.051582
2023-08-20T09:30:41.622Z,51.051632
2023-08-20T09:31:41.591Z,51.051598
2023-08-20T09:32:41.592Z,51.051540
2023-08-20T09:33:41.542Z,51.051620
2023-08-20T09:34:41.573Z,51.051647
2023-08-20T09:35:41.547Z,51.051617
2023-08-20T09:36:41.546Z,51.051567
2023-08-20T09:37:41.529Z,51.051582
2023-08-20T09:38:41.555Z,51.051590
2023-08-20T09:39:41.559Z,51.051647
2023-08-20T09:40:41.502Z,51.051624
2023-08-20T09:41:41.499Z,51.051647
2023-08-20T09:42:41.483Z,51.051617
2023-08-20T09:43:41.506Z,51.051613
2023-08-20T09:44:41.560Z,51.051624
2023-08-20T09:45:41.540Z,51.051624
2023-08-20T09:46:41.459Z,51.051613
2023-08-20T09:47:41.460Z,51.051620
2023-08-20T09:48:41.471Z,51.051632
2023-08-20T09:49:41.466Z,51.051559
2023-08-20T09:50:41.435Z,51.051601
2023-08-20T09:51:41.434Z,51.051609
2023-08-20T09:52:41.434Z,51.051605
2023-08-20T09:53:41.433Z,51.051598
2023-08-20T09:54:41.415Z,51.051609
2023-08-20T09:55:41.420Z,51.051609
2023-08-20T09:56:41.388Z,51.051598
2023-08-20T09:57:43.458Z,51.051647
2023-08-20T09:58:41.402Z,51.051624
2023-08-20T09:59:41.368Z,51.051617
2023-08-20T10:00:41.365Z,51.051563
2023-08-20T10:01:41.381Z,51.051579
2023-08-20T10:02:41.488Z,51.051525
2023-08-20T10:03:41.362Z,51.051590
2023-08-20T10:04:41.356Z,51.051609
2023-08-20T10:05:41.351Z,51.051620
2023-08-20T10:06:41.356Z,51.051590
2023-08-20T10:07:41.397Z,51.051613
2023-08-20T10:08:41.329Z,51.051624
2023-08-20T10:09:44.113Z,51.051598
2023-08-20T10:10:41.295Z,51.051624
2023-08-20T10:11:41.315Z,51.051628
2023-08-20T10:12:41.316Z,51.051605
2023-08-20T10:13:41.283Z,51.051636
2023-08-20T10:14:41.270Z,51.051601
2023-08-20T10:15:43.927Z,51.051617
2023-08-20T10:16:42.316Z,51.051605
2023-08-20T10:17:41.349Z,51.051586
2023-08-20T10:18:41.259Z,51.051601
2023-08-20T10:19:41.258Z,51.051640
2023-08-20T10:20:41.231Z,51.051640
2023-08-20T10:21:41.236Z,51.051636
2023-08-20T10:22:41.234Z,51.051605
2023-08-20T10:23:41.218Z,51.051605
2023-08-20T10:24:41.211Z,51.051620
2023-08-20T10:25:41.218Z,51.051647
2023-08-20T10:26:41.209Z,51.051636
2023-08-20T10:27:41.186Z,51.051655
2023-08-20T10:28:41.193Z,51.051617
2023-08-20T10:29:41.284Z,51.051632
2023-08-20T10:30:41.190Z,51.051624
2023-08-20T10:31:41.207Z,51.051640
2023-08-20T10:32:41.169Z,51.051651
2023-08-20T10:33:41.146Z,51.051662
2023-08-20T10:34:41.163Z,51.051632
2023-08-20T10:35:41.196Z,51.051609
2023-08-20T10:36:41.133Z,51.051617
2023-08-20T10:37:41.127Z,51.051617
2023-08-20T10:38:41.115Z,51.051609
2023-08-20T10:39:41.129Z,51.051640
2023-08-20T10:40:41.125Z,51.051594
2023-08-20T10:41:41.105Z,51.051582
2023-08-20T10:42:41.108Z,51.051624
2023-08-20T10:43:41.091Z,51.051601
2023-08-20T10:44:41.125Z,51.051662
2023-08-20T10:45:41.103Z,51.051601
2023-08-20T10:46:41.099Z,51.051647
2023-08-20T10:47:41.091Z,51.051678
2023-08-20T10:48:41.060Z,51.051628
2023-08-20T10:49:41.077Z,51.051647
2023-08-20T10:50:41.055Z,51.051620
2023-08-20T10:51:41.042Z,51.051620
2023-08-20T10:52:41.058Z,51.051598
2023-08-20T10:53:41.048Z,51.051647
2023-08-20T10:54:41.040Z,51.051590
2023-08-20T10:55:41.023Z,51.051624
2023-08-20T10:56:41.023Z,51.051613
2023-08-20T10:57:41.007Z,51.051609
2023-08-20T10:58:41.014Z,51.051620
2023-08-20T10:59:41.003Z,51.051632
2023-08-20T11:00:41.015Z,51.051643
2023-08-20T11:01:40.997Z,51.051624
2023-08-20T11:02:41.097Z,51.051624
2023-08-20T11:03:41.313Z,51.051613
2023-08-20T11:04:41.011Z,51.051632
2023-08-20T11:05:40.961Z,51.051643
2023-08-20T11:06:40.948Z,51.051609
2023-08-20T11:07:40.984Z,51.051640
2023-08-20T11:08:40.972Z,51.051651
2023-08-20T11:09:40.933Z,51.051598
2023-08-20T11:10:40.938Z,51.051582
2023-08-20T11:11:40.934Z,51.051643
2023-08-20T11:12:40.942Z,51.051659
2023-08-20T11:13:40.925Z,51.051617
2023-08-20T11:14:40.921Z,51.051628
2023-08-20T11:15:40.924Z,51.051605
2023-08-20T11:16:41.133Z,51.051605
2023-08-20T11:17:40.912Z,51.051620
2023-08-20T11:18:40.910Z,51.051601
2023-08-20T11:19:40.912Z,51.051617
2023-08-20T11:20:41.004Z,51.051609
2023-08-20T11:21:40.868Z,51.051605
2023-08-20T11:22:40.890Z,51.051624
2023-08-20T11:23:40.890Z,51.051617
2023-08-20T11:24:40.865Z,51.051613
2023-08-20T11:25:41.855Z,51.051659
2023-08-20T11:26:40.841Z,51.051640
2023-08-20T11:27:40.845Z,51.051628
2023-08-20T11:28:40.832Z,51.051620
2023-08-20T11:29:40.822Z,51.051609
2023-08-20T11:30:40.829Z,51.051601
2023-08-20T11:31:40.807Z,51.051617
2023-08-20T11:32:41.815Z,51.051632
2023-08-20T11:33:40.781Z,51.051628
2023-08-20T11:34:40.773Z,51.051628
2023-08-20T11:35:40.764Z,51.051617
2023-08-20T11:36:40.795Z,51.051620
2023-08-20T11:37:40.751Z,51.051617
2023-08-20T11:38:40.752Z,51.051624
2023-08-20T11:39:40.742Z,51.051643
2023-08-20T11:40:40.770Z,51.051640
2023-08-20T11:41:40.747Z,51.051620
2023-08-20T11:42:40.741Z,51.051632
2023-08-20T11:43:40.709Z,51.051636
2023-08-20T11:44:40.737Z,51.051594
2023-08-20T11:45:40.720Z,51.051605
2023-08-20T11:46:40.708Z,51.051609
2023-08-20T11:47:40.710Z,51.051636
2023-08-20T11:48:40.681Z,51.051632
2023-08-20T11:49:40.678Z,51.051636